sensor_id;sensor_type;location;lat;lon;timestamp;pressure;altitude;pressure_sealevel;temperature;humidity
28079;BME280;15388;42.238;24.684;2023-09-19T00:00:17;99868.00;;;17.27;100.00
28079;BME280;15388;42.238;24.684;2023-09-19T00:02:45;99863.97;;;17.23;100.00
28079;BME280;15388;42.238;24.684;2023-09-19T00:05:12;99878.41;;;17.30;100.00
28079;BME280;15388;42.238;24.684;2023-09-19T00:07:38;99877.03;;;17.35;100.00
28079;BME280;15388;42.238;24.684;2023-09-19T00:10:03;99874.19;;;17.36;100.00
28079;BME280;15388;42.238;24.684;2023-09-19T00:12:29;99872.00;;;17.40;100.00
28079;BME280;15388;42.238;24.684;2023-09-19T00:14:55;99877.03;;;17.43;100.00
28079;BME280;15388;42.238;24.684;2023-09-19T00:17:22;99856.88;;;17.39;100.00
28079;BME280;15388;42.238;24.684;2023-09-19T00:19:47;99869.16;;;17.41;100.00
28079;BME280;15388;42.238;24.684;2023-09-19T00:22:16;99866.78;;;17.38;100.00
28079;BME280;15388;42.238;24.684;2023-09-19T00:24:44;99872.69;;;17.34;100.00
28079;BME280;15388;42.238;24.684;2023-09-19T00:27:09;99866.50;;;17.33;100.00
28079;BME280;15388;42.238;24.684;2023-09-19T00:29:34;99868.00;;;17.27;100.00
28079;BME280;15388;42.238;24.684;2023-09-19T00:32:00;99865.84;;;17.23;100.00
28079;BME280;15388;42.238;24.684;2023-09-19T00:34:28;99865.34;;;17.19;100.00
28079;BME280;15388;42.238;24.684;2023-09-19T00:36:55;99869.91;;;17.18;100.00
28079;BME280;15388;42.238;24.684;2023-09-19T00:39:20;99860.28;;;17.16;100.00
28079;BME280;15388;42.238;24.684;2023-09-19T00:41:47;99862.97;;;17.24;100.00
28079;BME280;15388;42.238;24.684;2023-09-19T00:44:12;99861.28;;;17.23;100.00
28079;BME280;15388;42.238;24.684;2023-09-19T00:46:39;99872.03;;;17.23;100.00
28079;BME280;15388;42.238;24.684;2023-09-19T00:49:07;99863.31;;;17.21;100.00
28079;BME280;15388;42.238;24.684;2023-09-19T00:51:34;99868.38;;;17.16;100.00
28079;BME280;15388;42.238;24.684;2023-09-19T00:54:01;99866.00;;;17.13;100.00
28079;BME280;15388;42.238;24.684;2023-09-19T00:56:28;99869.88;;;17.10;100.00
28079;BME280;15388;42.238;24.684;2023-09-19T00:58:53;99860.81;;;17.03;100.00
28079;BME280;15388;42.238;24.684;2023-09-19T01:01:19;99859.63;;;17.05;100.00
28079;BME280;15388;42.238;24.684;2023-09-19T01:03:46;99855.97;;;17.06;100.00
28079;BME280;15388;42.238;24.684;2023-09-19T01:06:11;99859.47;;;16.99;100.00
28079;BME280;15388;42.238;24.684;2023-09-19T01:08:37;99865.03;;;16.89;100.00
28079;BME280;15388;42.238;24.684;2023-09-19T01:11:11;99854.94;;;16.91;100.00
28079;BME280;15388;42.238;24.684;2023-09-19T01:13:43;99849.25;;;16.86;100.00
28079;BME280;15388;42.238;24.684;2023-09-19T01:16:42;99851.63;;;16.80;100.00
28079;BME280;15388;42.238;24.684;2023-09-19T01:21:57;99850.25;;;16.76;100.00
28079;BME280;15388;42.238;24.684;2023-09-19T01:25:02;99850.63;;;16.73;100.00
28079;BME280;15388;42.238;24.684;2023-09-19T01:30:27;99858.19;;;16.61;100.00
28079;BME280;15388;42.238;24.684;2023-09-19T01:32:56;99851.81;;;16.54;100.00
28079;BME280;15388;42.238;24.684;2023-09-19T01:35:22;99847.25;;;16.54;100.00
28079;BME280;15388;42.238;24.684;2023-09-19T01:37:48;99848.09;;;16.55;100.00
28079;BME280;15388;42.238;24.684;2023-09-19T01:40:16;99851.31;;;16.59;100.00
28079;BME280;15388;42.238;24.684;2023-09-19T01:42:50;99850.63;;;16.57;100.00
28079;BME280;15388;42.238;24.684;2023-09-19T01:48:05;99825.09;;;16.44;100.00
28079;BME280;15388;42.238;24.684;2023-09-19T01:50:45;99852.28;;;16.58;100.00
28079;BME280;15388;42.238;24.684;2023-09-19T01:53:24;99847.25;;;16.54;100.00
28079;BME280;15388;42.238;24.684;2023-09-19T01:55:51;99841.06;;;16.54;100.00
28079;BME280;15388;42.238;24.684;2023-09-19T01:58:23;99836.19;;;16.49;100.00
28079;BME280;15388;42.238;24.684;2023-09-19T02:00:51;99847.41;;;16.45;100.00
28079;BME280;15388;42.238;24.684;2023-09-19T02:03:20;99845.75;;;16.43;100.00
28079;BME280;15388;42.238;24.684;2023-09-19T02:05:51;99849.47;;;16.42;100.00
28079;BME280;15388;42.238;24.684;2023-09-19T02:08:19;99846.41;;;16.37;100.00
28079;BME280;15388;42.238;24.684;2023-09-19T02:10:45;99849.44;;;16.26;100.00
28079;BME280;15388;42.238;24.684;2023-09-19T02:13:21;99846.25;;;16.30;100.00
28079;BME280;15388;42.238;24.684;2023-09-19T02:15:51;99834.00;;;16.28;100.00
28079;BME280;15388;42.238;24.684;2023-09-19T02:18:16;99843.91;;;16.19;100.00
28079;BME280;15388;42.238;24.684;2023-09-19T02:20:42;99838.16;;;16.22;100.00
28079;BME280;15388;42.238;24.684;2023-09-19T02:23:08;99840.84;;;16.22;100.00
28079;BME280;15388;42.238;24.684;2023-09-19T02:25:34;99838.84;;;16.16;100.00
28079;BME280;15388;42.238;24.684;2023-09-19T02:28:00;99840.38;;;16.10;100.00
28079;BME280;15388;42.238;24.684;2023-09-19T02:30:28;99837.00;;;16.08;100.00
28079;BME280;15388;42.238;24.684;2023-09-19T02:32:54;99844.50;;;15.96;100.00
28079;BME280;15388;42.238;24.684;2023-09-19T02:35:19;99838.78;;;15.91;100.00
28079;BME280;15388;42.238;24.684;2023-09-19T02:37:45;99843.78;;;15.86;100.00
28079;BME280;15388;42.238;24.684;2023-09-19T02:40:11;99840.44;;;15.84;100.00
28079;BME280;15388;42.238;24.684;2023-09-19T02:42:54;99845.81;;;15.84;100.00
28079;BME280;15388;42.238;24.684;2023-09-19T02:45:20;99840.44;;;15.84;100.00
28079;BME280;15388;42.238;24.684;2023-09-19T02:47:48;99832.22;;;15.85;100.00
28079;BME280;15388;42.238;24.684;2023-09-19T02:50:15;99832.88;;;15.79;100.00
28079;BME280;15388;42.238;24.684;2023-09-19T02:52:42;99835.06;;;15.75;100.00
28079;BME280;15388;42.238;24.684;2023-09-19T02:55:18;99841.72;;;15.63;100.00
28079;BME280;15388;42.238;24.684;2023-09-19T02:57:49;99837.69;;;15.59;100.00
28079;BME280;15388;42.238;24.684;2023-09-19T03:00:17;99830.66;;;15.58;100.00
28079;BME280;15388;42.238;24.684;2023-09-19T03:02:52;99840.69;;;15.56;100.00
28079;BME280;15388;42.238;24.684;2023-09-19T03:05:18;99842.00;;;15.51;100.00
28079;BME280;15388;42.238;24.684;2023-09-19T03:07:44;99843.19;;;15.49;100.00
28079;BME280;15388;42.238;24.684;2023-09-19T03:10:11;99843.81;;;15.43;100.00
28079;BME280;15388;42.238;24.684;2023-09-19T03:12:36;99842.94;;;15.34;100.00
28079;BME280;15388;42.238;24.684;2023-09-19T03:15:02;99846.63;;;15.33;100.00
28079;BME280;15388;42.238;24.684;2023-09-19T03:17:29;99846.56;;;15.24;100.00
28079;BME280;15388;42.238;24.684;2023-09-19T03:19:55;99834.59;;;15.10;100.00
28079;BME280;15388;42.238;24.684;2023-09-19T03:22:20;99841.13;;;15.08;100.00
28079;BME280;15388;42.238;24.684;2023-09-19T03:24:46;99842.06;;;14.98;100.00
28079;BME280;15388;42.238;24.684;2023-09-19T03:27:12;99834.03;;;14.98;100.00
28079;BME280;15388;42.238;24.684;2023-09-19T03:29:39;99837.69;;;14.89;100.00
28079;BME280;15388;42.238;24.684;2023-09-19T03:32:05;99847.50;;;14.80;100.00
28079;BME280;15388;42.238;24.684;2023-09-19T03:34:30;99838.84;;;14.50;100.00
28079;BME280;15388;42.238;24.684;2023-09-19T03:36:56;99831.88;;;14.31;100.00
28079;BME280;15388;42.238;24.684;2023-09-19T03:39:21;99830.16;;;14.30;100.00
28079;BME280;15388;42.238;24.684;2023-09-19T03:41:47;99834.13;;;14.25;100.00
28079;BME280;15388;42.238;24.684;2023-09-19T03:44:13;99845.63;;;14.18;100.00
28079;BME280;15388;42.238;24.684;2023-09-19T03:46:38;99834.84;;;13.91;100.00
28079;BME280;15388;42.238;24.684;2023-09-19T03:49:04;99833.34;;;13.79;100.00
28079;BME280;15388;42.238;24.684;2023-09-19T03:51:29;99837.16;;;13.76;100.00
28079;BME280;15388;42.238;24.684;2023-09-19T03:53:55;99832.19;;;13.63;100.00
28079;BME280;15388;42.238;24.684;2023-09-19T03:56:20;99845.16;;;13.58;100.00
28079;BME280;15388;42.238;24.684;2023-09-19T03:58:46;99838.72;;;13.50;100.00
28079;BME280;15388;42.238;24.684;2023-09-19T04:01:11;99841.81;;;13.46;100.00
28079;BME280;15388;42.238;24.684;2023-09-19T04:03:38;99838.41;;;13.54;100.00
28079;BME280;15388;42.238;24.684;2023-09-19T04:06:14;99834.16;;;13.61;100.00
28079;BME280;15388;42.238;24.684;2023-09-19T04:08:39;99834.25;;;13.69;100.00
28079;BME280;15388;42.238;24.684;2023-09-19T04:11:05;99834.94;;;13.71;100.00
28079;BME280;15388;42.238;24.684;2023-09-19T04:13:30;99840.41;;;13.80;100.00
28079;BME280;15388;42.238;24.684;2023-09-19T04:15:56;99836.13;;;13.87;100.00
28079;BME280;15388;42.238;24.684;2023-09-19T04:18:22;99844.91;;;13.97;100.00
28079;BME280;15388;42.238;24.684;2023-09-19T04:20:52;99835.91;;;13.98;100.00
28079;BME280;15388;42.238;24.684;2023-09-19T04:23:17;99833.31;;;14.07;100.00
28079;BME280;15388;42.238;24.684;2023-09-19T04:25:45;99836.06;;;14.15;100.00
28079;BME280;15388;42.238;24.684;2023-09-19T04:28:10;99840.88;;;14.11;100.00
28079;BME280;15388;42.238;24.684;2023-09-19T04:30:37;99843.41;;;14.13;100.00
28079;BME280;15388;42.238;24.684;2023-09-19T04:33:03;99847.75;;;14.14;100.00
28079;BME280;15388;42.238;24.684;2023-09-19T04:35:28;99844.56;;;14.10;100.00
28079;BME280;15388;42.238;24.684;2023-09-19T04:37:56;99848.22;;;14.09;100.00
28079;BME280;15388;42.238;24.684;2023-09-19T04:40:22;99838.47;;;13.90;100.00
28079;BME280;15388;42.238;24.684;2023-09-19T04:42:56;99844.38;;;13.94;100.00
28079;BME280;15388;42.238;24.684;2023-09-19T04:45:22;99842.16;;;13.89;100.00
28079;BME280;15388;42.238;24.684;2023-09-19T04:47:48;99840.19;;;13.91;100.00
28079;BME280;15388;42.238;24.684;2023-09-19T04:50:13;99840.22;;;13.81;100.00
28079;BME280;15388;42.238;24.684;2023-09-19T04:52:40;99840.78;;;13.85;100.00
28079;BME280;15388;42.238;24.684;2023-09-19T04:55:11;99842.75;;;13.83;100.00
28079;BME280;15388;42.238;24.684;2023-09-19T04:57:39;99835.78;;;13.72;100.00
28079;BME280;15388;42.238;24.684;2023-09-19T05:00:05;99838.63;;;13.70;100.00
28079;BME280;15388;42.238;24.684;2023-09-19T05:02:37;99846.63;;;13.70;100.00
28079;BME280;15388;42.238;24.684;2023-09-19T05:05:03;99846.94;;;13.67;100.00
28079;BME280;15388;42.238;24.684;2023-09-19T05:07:30;99853.56;;;13.63;100.00
28079;BME280;15388;42.238;24.684;2023-09-19T05:09:55;99852.25;;;13.49;100.00
28079;BME280;15388;42.238;24.684;2023-09-19T05:12:20;99846.31;;;13.45;100.00
28079;BME280;15388;42.238;24.684;2023-09-19T05:14:46;99851.66;;;13.45;100.00
28079;BME280;15388;42.238;24.684;2023-09-19T05:17:13;99842.78;;;13.55;100.00
28079;BME280;15388;42.238;24.684;2023-09-19T05:19:39;99855.53;;;13.61;100.00
28079;BME280;15388;42.238;24.684;2023-09-19T05:22:04;99853.28;;;13.66;100.00
28079;BME280;15388;42.238;24.684;2023-09-19T05:24:30;99836.94;;;13.69;100.00
28079;BME280;15388;42.238;24.684;2023-09-19T05:26:56;99847.81;;;13.86;100.00
28079;BME280;15388;42.238;24.684;2023-09-19T05:29:22;99844.31;;;13.85;100.00
28079;BME280;15388;42.238;24.684;2023-09-19T05:31:47;99847.69;;;14.06;100.00
28079;BME280;15388;42.238;24.684;2023-09-19T05:34:15;99854.88;;;14.23;100.00
28079;BME280;15388;42.238;24.684;2023-09-19T05:36:40;99862.84;;;14.33;100.00
28079;BME280;15388;42.238;24.684;2023-09-19T05:39:06;99862.44;;;14.46;100.00
28079;BME280;15388;42.238;24.684;2023-09-19T05:41:34;99862.81;;;14.51;100.00
28079;BME280;15388;42.238;24.684;2023-09-19T05:44:02;99861.88;;;14.61;100.00
28079;BME280;15388;42.238;24.684;2023-09-19T05:46:28;99864.63;;;14.69;100.00
28079;BME280;15388;42.238;24.684;2023-09-19T05:48:55;99857.78;;;14.75;100.00
28079;BME280;15388;42.238;24.684;2023-09-19T05:51:22;99850.19;;;14.80;100.00
28079;BME280;15388;42.238;24.684;2023-09-19T05:53:48;99844.91;;;14.97;100.00
28079;BME280;15388;42.238;24.684;2023-09-19T05:56:14;99855.19;;;15.10;100.00
28079;BME280;15388;42.238;24.684;2023-09-19T05:58:40;99848.22;;;15.17;100.00
28079;BME280;15388;42.238;24.684;2023-09-19T06:01:08;99850.97;;;15.34;100.00
28079;BME280;15388;42.238;24.684;2023-09-19T06:03:34;99847.38;;;15.51;100.00
28079;BME280;15388;42.238;24.684;2023-09-19T06:06:01;99849.75;;;15.63;100.00
28079;BME280;15388;42.238;24.684;2023-09-19T06:08:26;99847.78;;;15.73;100.00
28079;BME280;15388;42.238;24.684;2023-09-19T06:10:53;99840.13;;;15.95;100.00
28079;BME280;15388;42.238;24.684;2023-09-19T06:13:19;99845.22;;;16.15;100.00
28079;BME280;15388;42.238;24.684;2023-09-19T06:15:45;99846.09;;;16.32;100.00
28079;BME280;15388;42.238;24.684;2023-09-19T06:18:12;99842.91;;;16.45;100.00
28079;BME280;15388;42.238;24.684;2023-09-19T06:20:42;99839.53;;;16.68;100.00
28079;BME280;15388;42.238;24.684;2023-09-19T06:23:09;99839.81;;;16.90;100.00
28079;BME280;15388;42.238;24.684;2023-09-19T06:25:35;99835.97;;;17.09;100.00
28079;BME280;15388;42.238;24.684;2023-09-19T06:28:00;99836.56;;;17.28;100.00
28079;BME280;15388;42.238;24.684;2023-09-19T06:30:30;99834.97;;;17.50;100.00
28079;BME280;15388;42.238;24.684;2023-09-19T06:32:59;99838.88;;;17.79;100.00
28079;BME280;15388;42.238;24.684;2023-09-19T06:35:26;99834.44;;;17.87;100.00
28079;BME280;15388;42.238;24.684;2023-09-19T06:37:52;99827.88;;;17.89;100.00
28079;BME280;15388;42.238;24.684;2023-09-19T06:40:18;99828.75;;;18.13;100.00
28079;BME280;15388;42.238;24.684;2023-09-19T06:42:50;99830.19;;;18.24;100.00
28079;BME280;15388;42.238;24.684;2023-09-19T06:45:16;99824.78;;;18.24;100.00
28079;BME280;15388;42.238;24.684;2023-09-19T06:47:45;99830.69;;;18.28;100.00
28079;BME280;15388;42.238;24.684;2023-09-19T06:50:11;99830.78;;;18.35;100.00
28079;BME280;15388;42.238;24.684;2023-09-19T06:52:42;99827.38;;;18.41;100.00
28079;BME280;15388;42.238;24.684;2023-09-19T06:55:08;99828.75;;;18.37;100.00
28079;BME280;15388;42.238;24.684;2023-09-19T06:57:35;99833.34;;;18.51;100.00
28079;BME280;15388;42.238;24.684;2023-09-19T07:00:01;99840.41;;;18.52;100.00
28079;BME280;15388;42.238;24.684;2023-09-19T07:02:27;99839.59;;;18.67;100.00
28079;BME280;15388;42.238;24.684;2023-09-19T07:04:52;99842.47;;;18.65;100.00
28079;BME280;15388;42.238;24.684;2023-09-19T07:07:18;99836.25;;;18.65;100.00
28079;BME280;15388;42.238;24.684;2023-09-19T07:09:43;99837.84;;;18.74;100.00
28079;BME280;15388;42.238;24.684;2023-09-19T07:12:09;99830.63;;;18.90;100.00
28079;BME280;15388;42.238;24.684;2023-09-19T07:14:34;99831.66;;;19.04;100.00
28079;BME280;15388;42.238;24.684;2023-09-19T07:17:00;99841.53;;;19.12;100.00
28079;BME280;15388;42.238;24.684;2023-09-19T07:19:26;99828.34;;;19.17;100.00
28079;BME280;15388;42.238;24.684;2023-09-19T07:21:54;99826.47;;;19.32;100.00
28079;BME280;15388;42.238;24.684;2023-09-19T07:24:19;99830.34;;;19.60;100.00
28079;BME280;15388;42.238;24.684;2023-09-19T07:26:47;99830.31;;;19.75;100.00
28079;BME280;15388;42.238;24.684;2023-09-19T07:29:13;99825.69;;;19.91;100.00
28079;BME280;15388;42.238;24.684;2023-09-19T07:31:38;99822.34;;;20.04;100.00
28079;BME280;15388;42.238;24.684;2023-09-19T07:34:04;99817.66;;;20.13;100.00
28079;BME280;15388;42.238;24.684;2023-09-19T07:36:30;99819.72;;;20.32;99.10
28079;BME280;15388;42.238;24.684;2023-09-19T07:38:57;99825.22;;;20.46;95.71
28079;BME280;15388;42.238;24.684;2023-09-19T07:41:24;99813.25;;;20.55;98.06
28079;BME280;15388;42.238;24.684;2023-09-19T07:43:49;99812.72;;;20.73;95.69
28079;BME280;15388;42.238;24.684;2023-09-19T07:46:14;99802.22;;;20.85;94.75
28079;BME280;15388;42.238;24.684;2023-09-19T07:48:40;99802.47;;;20.62;94.64
28079;BME280;15388;42.238;24.684;2023-09-19T07:51:06;99790.38;;;20.58;96.82
28079;BME280;15388;42.238;24.684;2023-09-19T07:53:33;99800.94;;;20.81;95.53
28079;BME280;15388;42.238;24.684;2023-09-19T07:56:07;99789.84;;;20.98;90.91
28079;BME280;15388;42.238;24.684;2023-09-19T07:58:33;99788.63;;;21.07;92.90
28079;BME280;15388;42.238;24.684;2023-09-19T08:01:06;99790.44;;;21.35;91.86
28079;BME280;15388;42.238;24.684;2023-09-19T08:03:35;99793.47;;;21.68;90.22
28079;BME280;15388;42.238;24.684;2023-09-19T08:06:04;99782.09;;;21.93;87.03
28079;BME280;15388;42.238;24.684;2023-09-19T08:08:30;99781.06;;;22.07;84.56
28079;BME280;15388;42.238;24.684;2023-09-19T08:10:56;99775.44;;;22.36;85.34
28079;BME280;15388;42.238;24.684;2023-09-19T08:13:25;99774.84;;;22.61;83.99
28079;BME280;15388;42.238;24.684;2023-09-19T08:15:52;99775.19;;;22.92;79.20
28079;BME280;15388;42.238;24.684;2023-09-19T08:18:20;99777.44;;;23.08;75.79
28079;BME280;15388;42.238;24.684;2023-09-19T08:20:51;99778.81;;;23.31;74.70
28079;BME280;15388;42.238;24.684;2023-09-19T08:23:17;99782.53;;;23.44;74.18
28079;BME280;15388;42.238;24.684;2023-09-19T08:25:46;99774.75;;;23.61;71.13
28079;BME280;15388;42.238;24.684;2023-09-19T08:28:11;99774.97;;;23.59;68.90
28079;BME280;15388;42.238;24.684;2023-09-19T08:30:45;99771.13;;;23.74;68.59
28079;BME280;15388;42.238;24.684;2023-09-19T08:33:10;99762.75;;;23.75;67.23
28079;BME280;15388;42.238;24.684;2023-09-19T08:35:36;99763.06;;;23.92;66.65
28079;BME280;15388;42.238;24.684;2023-09-19T08:38:03;99752.97;;;24.00;66.63
28079;BME280;15388;42.238;24.684;2023-09-19T08:40:32;99751.56;;;24.23;67.41
28079;BME280;15388;42.238;24.684;2023-09-19T08:43:01;99748.72;;;24.36;65.54
28079;BME280;15388;42.238;24.684;2023-09-19T08:45:27;99754.31;;;24.41;63.03
28079;BME280;15388;42.238;24.684;2023-09-19T08:50:28;99737.13;;;24.66;59.42
28079;BME280;15388;42.238;24.684;2023-09-19T08:53:00;99731.25;;;24.70;61.64
28079;BME280;15388;42.238;24.684;2023-09-19T08:55:29;99736.09;;;24.67;60.14
28079;BME280;15388;42.238;24.684;2023-09-19T08:58:04;99735.25;;;24.67;60.19
28079;BME280;15388;42.238;24.684;2023-09-19T09:00:31;99738.63;;;24.88;58.53
28079;BME280;15388;42.238;24.684;2023-09-19T09:02:58;99730.50;;;25.00;58.55
28079;BME280;15388;42.238;24.684;2023-09-19T09:05:26;99730.19;;;25.27;57.50
28079;BME280;15388;42.238;24.684;2023-09-19T09:07:52;99725.50;;;25.15;52.88
28079;BME280;15388;42.238;24.684;2023-09-19T09:10:20;99716.09;;;24.99;54.69
28079;BME280;15388;42.238;24.684;2023-09-19T09:12:50;99713.94;;;25.01;53.16
28079;BME280;15388;42.238;24.684;2023-09-19T09:15:18;99707.69;;;25.01;54.61
28079;BME280;15388;42.238;24.684;2023-09-19T09:17:47;99719.38;;;25.20;55.93
28079;BME280;15388;42.238;24.684;2023-09-19T09:20:13;99712.25;;;25.50;55.43
28079;BME280;15388;42.238;24.684;2023-09-19T09:22:39;99698.50;;;25.75;53.57
28079;BME280;15388;42.238;24.684;2023-09-19T09:25:09;99696.31;;;25.96;50.16
28079;BME280;15388;42.238;24.684;2023-09-19T09:27:34;99696.03;;;25.98;49.92
28079;BME280;15388;42.238;24.684;2023-09-19T09:30:00;99693.75;;;25.71;50.72
28079;BME280;15388;42.238;24.684;2023-09-19T09:32:27;99697.00;;;25.91;50.92
28079;BME280;15388;42.238;24.684;2023-09-19T09:35:00;99694.41;;;26.20;51.14
28079;BME280;15388;42.238;24.684;2023-09-19T09:37:27;99683.75;;;26.55;50.14
28079;BME280;15388;42.238;24.684;2023-09-19T09:39:57;99695.19;;;26.81;49.67
28079;BME280;15388;42.238;24.684;2023-09-19T09:45:20;99674.53;;;26.97;46.70
28079;BME280;15388;42.238;24.684;2023-09-19T09:47:53;99670.50;;;27.00;46.25
28079;BME280;15388;42.238;24.684;2023-09-19T09:50:25;99675.97;;;27.00;45.81
28079;BME280;15388;42.238;24.684;2023-09-19T09:53:28;99668.75;;;26.81;45.65
28079;BME280;15388;42.238;24.684;2023-09-19T09:56:07;99662.63;;;26.26;47.40
28079;BME280;15388;42.238;24.684;2023-09-19T09:58:36;99664.53;;;26.14;47.47
28079;BME280;15388;42.238;24.684;2023-09-19T10:01:05;99666.66;;;26.48;48.66
28079;BME280;15388;42.238;24.684;2023-09-19T10:03:43;99660.31;;;26.83;47.54
28079;BME280;15388;42.238;24.684;2023-09-19T10:06:14;99656.88;;;27.17;47.11
28079;BME280;15388;42.238;24.684;2023-09-19T10:09:06;99665.00;;;27.58;45.50
28079;BME280;15388;42.238;24.684;2023-09-19T10:14:12;99651.59;;;27.74;42.77
28079;BME280;15388;42.238;24.684;2023-09-19T10:16:41;99653.41;;;27.85;42.46
28079;BME280;15388;42.238;24.684;2023-09-19T10:19:15;99640.50;;;27.97;42.72
28079;BME280;15388;42.238;24.684;2023-09-19T10:21:41;99642.28;;;27.57;42.87
28079;BME280;15388;42.238;24.684;2023-09-19T10:24:08;99642.84;;;27.42;42.41
28079;BME280;15388;42.238;24.684;2023-09-19T10:26:36;99640.25;;;27.18;43.84
28079;BME280;15388;42.238;24.684;2023-09-19T10:29:03;99626.63;;;27.36;44.06
28079;BME280;15388;42.238;24.684;2023-09-19T10:31:32;99622.91;;;27.59;44.11
28079;BME280;15388;42.238;24.684;2023-09-19T10:34:03;99615.66;;;27.82;43.46
28079;BME280;15388;42.238;24.684;2023-09-19T10:36:32;99604.06;;;27.92;42.67
28079;BME280;15388;42.238;24.684;2023-09-19T10:39:02;99609.41;;;28.04;42.54
28079;BME280;15388;42.238;24.684;2023-09-19T10:41:30;99608.47;;;28.32;42.78
28079;BME280;15388;42.238;24.684;2023-09-19T10:44:04;99601.78;;;28.45;41.34
28079;BME280;15388;42.238;24.684;2023-09-19T10:46:32;99600.66;;;28.24;40.99
28079;BME280;15388;42.238;24.684;2023-09-19T10:49:02;99599.44;;;28.15;41.62
28079;BME280;15388;42.238;24.684;2023-09-19T10:51:40;99588.03;;;28.40;40.97
28079;BME280;15388;42.238;24.684;2023-09-19T10:54:13;99591.28;;;28.59;40.44
28079;BME280;15388;42.238;24.684;2023-09-19T10:56:49;99578.00;;;28.96;40.87
28079;BME280;15388;42.238;24.684;2023-09-19T10:59:17;99579.75;;;29.35;40.37
28079;BME280;15388;42.238;24.684;2023-09-19T11:01:53;99580.28;;;29.70;40.55
28079;BME280;15388;42.238;24.684;2023-09-19T11:04:32;99580.78;;;30.10;39.09
28079;BME280;15388;42.238;24.684;2023-09-19T11:14:54;99561.84;;;30.72;36.06
28079;BME280;15388;42.238;24.684;2023-09-19T11:30:40;99533.63;;;30.13;36.41
28079;BME280;15388;42.238;24.684;2023-09-19T11:33:21;99531.81;;;29.81;36.19
28079;BME280;15388;42.238;24.684;2023-09-19T11:43:47;99521.75;;;28.60;37.89
28079;BME280;15388;42.238;24.684;2023-09-19T11:46:12;99510.41;;;28.46;38.44
28079;BME280;15388;42.238;24.684;2023-09-19T11:48:41;99516.19;;;28.50;39.09
28079;BME280;15388;42.238;24.684;2023-09-19T11:51:23;99509.69;;;27.89;38.93
28079;BME280;15388;42.238;24.684;2023-09-19T11:53:56;99506.34;;;28.27;38.44
28079;BME280;15388;42.238;24.684;2023-09-19T11:56:23;99503.13;;;28.30;38.75
28079;BME280;15388;42.238;24.684;2023-09-19T11:58:54;99497.50;;;28.19;38.50
28079;BME280;15388;42.238;24.684;2023-09-19T12:01:28;99489.22;;;27.92;38.80
28079;BME280;15388;42.238;24.684;2023-09-19T12:03:57;99490.31;;;28.13;40.28
28079;BME280;15388;42.238;24.684;2023-09-19T12:06:24;99484.59;;;28.37;38.74
28079;BME280;15388;42.238;24.684;2023-09-19T12:08:50;99484.63;;;28.20;38.25
28079;BME280;15388;42.238;24.684;2023-09-19T12:11:16;99481.38;;;28.01;38.22
28079;BME280;15388;42.238;24.684;2023-09-19T12:13:47;99475.47;;;27.87;38.13
28079;BME280;15388;42.238;24.684;2023-09-19T12:16:15;99483.88;;;28.02;39.00
28079;BME280;15388;42.238;24.684;2023-09-19T12:18:43;99474.69;;;28.31;38.65
28079;BME280;15388;42.238;24.684;2023-09-19T12:21:24;99475.31;;;28.38;38.76
28079;BME280;15388;42.238;24.684;2023-09-19T12:24:07;99468.84;;;28.27;37.76
28079;BME280;15388;42.238;24.684;2023-09-19T12:26:42;99470.84;;;28.59;38.27
28079;BME280;15388;42.238;24.684;2023-09-19T12:29:27;99461.72;;;29.09;37.00
28079;BME280;15388;42.238;24.684;2023-09-19T12:31:57;99459.38;;;29.23;36.49
28079;BME280;15388;42.238;24.684;2023-09-19T12:34:26;99463.50;;;29.26;37.29
28079;BME280;15388;42.238;24.684;2023-09-19T12:37:13;99462.31;;;29.54;36.27
28079;BME280;15388;42.238;24.684;2023-09-19T12:40:03;99456.25;;;30.06;36.11
28079;BME280;15388;42.238;24.684;2023-09-19T12:42:40;99460.78;;;30.48;33.87
28079;BME280;15388;42.238;24.684;2023-09-19T12:45:08;99451.44;;;30.44;33.45
28079;BME280;15388;42.238;24.684;2023-09-19T12:47:34;99456.97;;;30.55;33.39
28079;BME280;15388;42.238;24.684;2023-09-19T12:50:11;99441.84;;;30.73;33.03
28079;BME280;15388;42.238;24.684;2023-09-19T12:52:48;99449.78;;;30.43;32.35
28079;BME280;15388;42.238;24.684;2023-09-19T12:55:26;99442.53;;;30.11;33.00
28079;BME280;15388;42.238;24.684;2023-09-19T12:58:15;99435.75;;;29.55;33.21
28079;BME280;15388;42.238;24.684;2023-09-19T13:00:43;99440.16;;;29.61;34.50
28079;BME280;15388;42.238;24.684;2023-09-19T13:05:55;99443.34;;;29.42;33.99
28079;BME280;15388;42.238;24.684;2023-09-19T13:08:28;99430.75;;;29.46;34.55
28079;BME280;15388;42.238;24.684;2023-09-19T13:16:07;99428.16;;;29.72;34.29
28079;BME280;15388;42.238;24.684;2023-09-19T13:18:45;99430.09;;;29.82;34.09
28079;BME280;15388;42.238;24.684;2023-09-19T13:21:12;99417.59;;;30.02;34.42
28079;BME280;15388;42.238;24.684;2023-09-19T13:23:43;99421.75;;;30.25;33.86
28079;BME280;15388;42.238;24.684;2023-09-19T13:26:10;99417.16;;;30.68;33.07
28079;BME280;15388;42.238;24.684;2023-09-19T13:28:37;99395.72;;;31.06;33.13
28079;BME280;15388;42.238;24.684;2023-09-19T13:31:02;99404.19;;;31.31;33.05
28079;BME280;15388;42.238;24.684;2023-09-19T13:33:28;99405.81;;;31.47;32.02
28079;BME280;15388;42.238;24.684;2023-09-19T13:35:53;99401.91;;;31.59;31.33
28079;BME280;15388;42.238;24.684;2023-09-19T13:38:20;99392.78;;;31.74;31.48
28079;BME280;15388;42.238;24.684;2023-09-19T13:40:48;99391.63;;;31.96;31.27
28079;BME280;15388;42.238;24.684;2023-09-19T13:43:14;99389.25;;;32.24;31.41
28079;BME280;15388;42.238;24.684;2023-09-19T13:45:41;99387.84;;;32.26;30.52